sensor_id;sensor_type;location;lat;lon;timestamp;pressure;altitude;pressure_sealevel;temperature;humidity
41467;BME280;27205;53.690;19.948;2023-02-16T00:00:41;100786.14;;;4.48;86.19
41467;BME280;27205;53.690;19.948;2023-02-16T00:06:04;100782.42;;;4.53;86.27
41467;BME280;27205;53.690;19.948;2023-02-16T00:11:15;100777.29;;;4.58;86.38
41467;BME280;27205;53.690;19.948;2023-02-16T00:16:38;100773.90;;;4.61;86.34
41467;BME280;27205;53.690;19.948;2023-02-16T00:21:41;100769.48;;;4.65;86.28
41467;BME280;27205;53.690;19.948;2023-02-16T00:26:45;100763.23;;;4.66;86.35
41467;BME280;27205;53.690;19.948;2023-02-16T00:31:50;100754.42;;;4.66;86.45
41467;BME280;27205;53.690;19.948;2023-02-16T00:36:55;100747.23;;;4.74;86.59
41467;BME280;27205;53.690;19.948;2023-02-16T00:57:25;100724.49;;;4.77;86.96
41467;BME280;27205;53.690;19.948;2023-02-16T01:02:29;100716.69;;;4.78;86.93
41467;BME280;27205;53.690;19.948;2023-02-16T01:07:33;100707.73;;;4.82;87.14
41467;BME280;27205;53.690;19.948;2023-02-16T01:12:55;100703.05;;;4.82;87.06
41467;BME280;27205;53.690;19.948;2023-02-16T01:17:59;100705.23;;;4.81;87.08
41467;BME280;27205;53.690;19.948;2023-02-16T01:23:02;100691.39;;;4.80;87.12
41467;BME280;27205;53.690;19.948;2023-02-16T01:28:18;100677.61;;;4.74;86.95
41467;BME280;27205;53.690;19.948;2023-02-16T01:33:22;100673.38;;;4.65;87.22
41467;BME280;27205;53.690;19.948;2023-02-16T01:38:27;100666.72;;;4.67;87.39
41467;BME280;27205;53.690;19.948;2023-02-16T01:43:44;100662.59;;;4.71;87.37
41467;BME280;27205;53.690;19.948;2023-02-16T01:48:48;100653.27;;;4.75;87.33
41467;BME280;27205;53.690;19.948;2023-02-16T01:54:12;100640.55;;;4.80;87.49
41467;BME280;27205;53.690;19.948;2023-02-16T02:04:44;100626.02;;;4.86;87.67
41467;BME280;27205;53.690;19.948;2023-02-16T02:10:24;100611.11;;;4.83;87.53
41467;BME280;27205;53.690;19.948;2023-02-16T02:15:32;100607.06;;;4.74;87.53
41467;BME280;27205;53.690;19.948;2023-02-16T02:20:51;100602.30;;;4.54;87.73
41467;BME280;27205;53.690;19.948;2023-02-16T02:43:26;100578.56;;;4.47;87.63
41467;BME280;27205;53.690;19.948;2023-02-16T02:48:33;100571.02;;;4.36;87.82
41467;BME280;27205;53.690;19.948;2023-02-16T02:53:47;100569.89;;;4.33;87.84
41467;BME280;27205;53.690;19.948;2023-02-16T02:58:59;100563.95;;;4.34;88.06
41467;BME280;27205;53.690;19.948;2023-02-16T03:04:25;100555.63;;;4.39;88.22
41467;BME280;27205;53.690;19.948;2023-02-16T03:09:30;100552.14;;;4.42;88.17
41467;BME280;27205;53.690;19.948;2023-02-16T03:14:44;100545.46;;;4.36;88.35
41467;BME280;27205;53.690;19.948;2023-02-16T03:19:51;100538.98;;;4.32;88.13
41467;BME280;27205;53.690;19.948;2023-02-16T03:25:13;100534.98;;;4.29;88.36
41467;BME280;27205;53.690;19.948;2023-02-16T03:30:36;100527.41;;;4.30;88.41
41467;BME280;27205;53.690;19.948;2023-02-16T03:35:40;100528.44;;;4.33;88.32
41467;BME280;27205;53.690;19.948;2023-02-16T03:40:47;100526.85;;;4.36;88.27
41467;BME280;27205;53.690;19.948;2023-02-16T03:45:52;100526.30;;;4.45;88.14
41467;BME280;27205;53.690;19.948;2023-02-16T03:50:56;100517.49;;;4.46;88.33
41467;BME280;27205;53.690;19.948;2023-02-16T03:56:00;100511.77;;;4.43;88.11
41467;BME280;27205;53.690;19.948;2023-02-16T04:01:03;100509.05;;;4.37;88.29
41467;BME280;27205;53.690;19.948;2023-02-16T04:06:07;100493.64;;;4.32;88.39
41467;BME280;27205;53.690;19.948;2023-02-16T04:11:11;100482.97;;;4.32;88.55
41467;BME280;27205;53.690;19.948;2023-02-16T04:16:33;100476.11;;;4.27;88.42
41467;BME280;27205;53.690;19.948;2023-02-16T04:21:36;100470.46;;;4.20;88.28
41467;BME280;27205;53.690;19.948;2023-02-16T04:26:40;100473.62;;;4.17;88.44
41467;BME280;27205;53.690;19.948;2023-02-16T04:31:44;100477.11;;;4.19;88.61
41467;BME280;27205;53.690;19.948;2023-02-16T04:36:47;100473.25;;;4.17;88.64
41467;BME280;27205;53.690;19.948;2023-02-16T04:41:51;100472.29;;;4.13;88.69
41467;BME280;27205;53.690;19.948;2023-02-16T04:46:55;100466.48;;;4.06;88.70
41467;BME280;27205;53.690;19.948;2023-02-16T04:51:58;100465.93;;;3.97;88.67
41467;BME280;27205;53.690;19.948;2023-02-16T04:57:03;100461.39;;;3.99;88.76
41467;BME280;27205;53.690;19.948;2023-02-16T05:02:07;100459.48;;;4.01;88.91
41467;BME280;27205;53.690;19.948;2023-02-16T05:07:10;100454.68;;;4.04;88.85
41467;BME280;27205;53.690;19.948;2023-02-16T05:12:14;100449.39;;;4.03;88.77
41467;BME280;27205;53.690;19.948;2023-02-16T05:17:36;100446.67;;;3.98;89.05
41467;BME280;27205;53.690;19.948;2023-02-16T05:22:40;100449.18;;;3.93;88.96
41467;BME280;27205;53.690;19.948;2023-02-16T05:27:45;100437.88;;;3.88;88.88
41467;BME280;27205;53.690;19.948;2023-02-16T05:32:49;100440.39;;;3.87;88.98
41467;BME280;27205;53.690;19.948;2023-02-16T05:37:52;100432.83;;;3.87;89.19
41467;BME280;27205;53.690;19.948;2023-02-16T05:42:56;100433.78;;;3.92;89.21
41467;BME280;27205;53.690;19.948;2023-02-16T05:48:00;100438.73;;;3.89;89.00
41467;BME280;27205;53.690;19.948;2023-02-16T05:53:04;100444.17;;;3.84;89.19
41467;BME280;27205;53.690;19.948;2023-02-16T05:58:07;100443.13;;;3.86;89.27
41467;BME280;27205;53.690;19.948;2023-02-16T06:03:11;100432.40;;;3.90;89.07
41467;BME280;27205;53.690;19.948;2023-02-16T06:08:14;100422.27;;;3.85;89.25
41467;BME280;27205;53.690;19.948;2023-02-16T06:13:19;100431.41;;;3.84;89.13
41467;BME280;27205;53.690;19.948;2023-02-16T06:18:23;100429.94;;;3.78;89.19
41467;BME280;27205;53.690;19.948;2023-02-16T06:23:27;100426.02;;;3.70;89.11
41467;BME280;27205;53.690;19.948;2023-02-16T06:28:30;100422.23;;;3.59;89.10
41467;BME280;27205;53.690;19.948;2023-02-16T06:33:34;100417.04;;;3.62;89.42
41467;BME280;27205;53.690;19.948;2023-02-16T06:38:38;100415.71;;;3.62;89.24
41467;BME280;27205;53.690;19.948;2023-02-16T06:43:41;100415.80;;;3.61;89.21
41467;BME280;27205;53.690;19.948;2023-02-16T06:48:45;100414.41;;;3.60;89.27
41467;BME280;27205;53.690;19.948;2023-02-16T06:53:48;100409.71;;;3.58;89.45
41467;BME280;27205;53.690;19.948;2023-02-16T06:58:52;100409.56;;;3.63;89.33
41467;BME280;27205;53.690;19.948;2023-02-16T07:03:56;100410.44;;;3.71;89.54
41467;BME280;27205;53.690;19.948;2023-02-16T07:09:00;100412.64;;;3.75;89.49
41467;BME280;27205;53.690;19.948;2023-02-16T07:14:03;100410.23;;;3.70;89.45
41467;BME280;27205;53.690;19.948;2023-02-16T07:19:07;100406.15;;;3.67;89.31
41467;BME280;27205;53.690;19.948;2023-02-16T07:24:11;100402.20;;;3.54;89.02
41467;BME280;27205;53.690;19.948;2023-02-16T07:29:15;100404.36;;;3.51;89.22
41467;BME280;27205;53.690;19.948;2023-02-16T07:34:18;100398.98;;;3.57;89.41
41467;BME280;27205;53.690;19.948;2023-02-16T07:39:24;100397.23;;;3.64;89.53
41467;BME280;27205;53.690;19.948;2023-02-16T07:44:27;100394.04;;;3.69;89.69
41467;BME280;27205;53.690;19.948;2023-02-16T07:49:31;100388.54;;;3.78;89.64
41467;BME280;27205;53.690;19.948;2023-02-16T07:54:35;100389.23;;;3.88;89.63
41467;BME280;27205;53.690;19.948;2023-02-16T07:59:38;100389.86;;;3.96;89.71
41467;BME280;27205;53.690;19.948;2023-02-16T08:04:42;100385.71;;;4.03;89.68
41467;BME280;27205;53.690;19.948;2023-02-16T08:09:46;100383.83;;;4.21;89.93
41467;BME280;27205;53.690;19.948;2023-02-16T08:14:49;100379.28;;;4.32;89.79
41467;BME280;27205;53.690;19.948;2023-02-16T08:19:53;100380.49;;;4.38;89.72
41467;BME280;27205;53.690;19.948;2023-02-16T08:24:56;100373.20;;;4.52;89.62
41467;BME280;27205;53.690;19.948;2023-02-16T08:30:02;100365.45;;;4.67;89.68
41467;BME280;27205;53.690;19.948;2023-02-16T08:35:07;100365.48;;;4.73;89.49
41467;BME280;27205;53.690;19.948;2023-02-16T08:40:10;100365.08;;;4.74;89.69
41467;BME280;27205;53.690;19.948;2023-02-16T08:45:14;100359.39;;;4.70;89.56
41467;BME280;27205;53.690;19.948;2023-02-16T08:50:18;100352.79;;;4.72;89.44
41467;BME280;27205;53.690;19.948;2023-02-16T08:55:21;100347.86;;;4.69;89.44
41467;BME280;27205;53.690;19.948;2023-02-16T09:00:26;100342.41;;;4.65;89.63
41467;BME280;27205;53.690;19.948;2023-02-16T09:05:40;100343.41;;;4.62;89.55
41467;BME280;27205;53.690;19.948;2023-02-16T09:10:44;100344.77;;;4.56;89.50
41467;BME280;27205;53.690;19.948;2023-02-16T09:15:48;100348.19;;;4.57;89.42
41467;BME280;27205;53.690;19.948;2023-02-16T09:20:51;100347.46;;;4.57;89.35
41467;BME280;27205;53.690;19.948;2023-02-16T09:25:55;100348.22;;;4.55;89.10
41467;BME280;27205;53.690;19.948;2023-02-16T09:30:59;100343.52;;;4.53;89.35
41467;BME280;27205;53.690;19.948;2023-02-16T09:36:04;100340.13;;;4.47;89.27
41467;BME280;27205;53.690;19.948;2023-02-16T09:46:40;100338.71;;;4.55;89.04
41467;BME280;27205;53.690;19.948;2023-02-16T09:51:44;100331.30;;;4.60;89.08
41467;BME280;27205;53.690;19.948;2023-02-16T09:56:53;100339.44;;;4.69;88.97
41467;BME280;27205;53.690;19.948;2023-02-16T10:02:41;100340.81;;;4.81;89.23
41467;BME280;27205;53.690;19.948;2023-02-16T10:08:04;100340.41;;;5.00;89.29
41467;BME280;27205;53.690;19.948;2023-02-16T10:13:18;100345.09;;;5.11;89.05
41467;BME280;27205;53.690;19.948;2023-02-16T10:18:29;100347.38;;;5.10;89.01
41467;BME280;27205;53.690;19.948;2023-02-16T10:23:45;100353.70;;;5.17;88.94
41467;BME280;27205;53.690;19.948;2023-02-16T10:28:55;100348.73;;;5.27;88.87
41467;BME280;27205;53.690;19.948;2023-02-16T10:45:16;100336.34;;;5.42;88.45
41467;BME280;27205;53.690;19.948;2023-02-16T10:55:28;100355.87;;;5.18;88.28
41467;BME280;27205;53.690;19.948;2023-02-16T11:00:47;100346.91;;;5.10;88.60
41467;BME280;27205;53.690;19.948;2023-02-16T11:05:53;100350.16;;;5.15;88.26
41467;BME280;27205;53.690;19.948;2023-02-16T11:11:09;100354.02;;;5.02;88.18
41467;BME280;27205;53.690;19.948;2023-02-16T11:16:21;100354.16;;;5.03;88.01
41467;BME280;27205;53.690;19.948;2023-02-16T11:21:47;100350.26;;;4.85;87.71
41467;BME280;27205;53.690;19.948;2023-02-16T11:27:04;100347.02;;;4.76;87.84
41467;BME280;27205;53.690;19.948;2023-02-16T11:32:10;100348.63;;;4.77;87.78
41467;BME280;27205;53.690;19.948;2023-02-16T11:47:39;100330.98;;;5.06;87.28
41467;BME280;27205;53.690;19.948;2023-02-16T11:52:46;100339.42;;;5.20;87.03
41467;BME280;27205;53.690;19.948;2023-02-16T11:57:52;100329.51;;;5.21;87.20
41467;BME280;27205;53.690;19.948;2023-02-16T12:03:15;100328.13;;;5.30;87.31
41467;BME280;27205;53.690;19.948;2023-02-16T12:35:06;100331.14;;;5.58;86.25
41467;BME280;27205;53.690;19.948;2023-02-16T12:45:21;100308.11;;;5.99;85.81
41467;BME280;27205;53.690;19.948;2023-02-16T12:50:27;100302.61;;;6.17;85.78
41467;BME280;27205;53.690;19.948;2023-02-16T12:55:49;100298.63;;;6.26;85.62
41467;BME280;27205;53.690;19.948;2023-02-16T13:01:00;100296.34;;;6.35;85.00
41467;BME280;27205;53.690;19.948;2023-02-16T13:06:14;100295.72;;;6.44;85.28
41467;BME280;27205;53.690;19.948;2023-02-16T13:11:24;100297.56;;;6.77;85.28
41467;BME280;27205;53.690;19.948;2023-02-16T13:48:30;100264.73;;;7.70;83.76
41467;BME280;27205;53.690;19.948;2023-02-16T13:53:38;100262.28;;;7.66;83.74
41467;BME280;27205;53.690;19.948;2023-02-16T13:58:42;100260.75;;;7.69;83.60
41467;BME280;27205;53.690;19.948;2023-02-16T14:03:46;100255.38;;;7.66;83.39
41467;BME280;27205;53.690;19.948;2023-02-16T14:19:36;100251.10;;;7.79;83.56
41467;BME280;27205;53.690;19.948;2023-02-16T14:24:40;100251.41;;;7.94;83.52
41467;BME280;27205;53.690;19.948;2023-02-16T14:30:01;100257.70;;;7.81;82.99
41467;BME280;27205;53.690;19.948;2023-02-16T14:55:46;100266.52;;;6.80;82.34
41467;BME280;27205;53.690;19.948;2023-02-16T15:01:14;100264.77;;;6.62;82.42
41467;BME280;27205;53.690;19.948;2023-02-16T15:06:35;100262.35;;;6.38;82.49
41467;BME280;27205;53.690;19.948;2023-02-16T15:11:48;100263.73;;;6.31;82.29
41467;BME280;27205;53.690;19.948;2023-02-16T15:22:30;100263.98;;;5.87;82.33
41467;BME280;27205;53.690;19.948;2023-02-16T15:27:34;100256.63;;;5.59;82.61
41467;BME280;27205;53.690;19.948;2023-02-16T15:32:38;100250.30;;;5.31;82.94
41467;BME280;27205;53.690;19.948;2023-02-16T15:37:41;100244.54;;;5.15;83.16
41467;BME280;27205;53.690;19.948;2023-02-16T15:42:45;100241.19;;;5.02;82.91
41467;BME280;27205;53.690;19.948;2023-02-16T15:47:49;100245.68;;;4.86;82.77
41467;BME280;27205;53.690;19.948;2023-02-16T15:52:52;100239.02;;;4.66;82.95
41467;BME280;27205;53.690;19.948;2023-02-16T15:57:56;100233.41;;;4.49;83.09
41467;BME280;27205;53.690;19.948;2023-02-16T16:03:01;100228.41;;;4.27;83.18
41467;BME280;27205;53.690;19.948;2023-02-16T16:08:25;100230.46;;;4.13;83.34
41467;BME280;27205;53.690;19.948;2023-02-16T16:13:29;100223.87;;;4.05;83.55
41467;BME280;27205;53.690;19.948;2023-02-16T16:23:54;100211.92;;;3.91;83.40
41467;BME280;27205;53.690;19.948;2023-02-16T16:28:58;100213.54;;;3.84;83.38
41467;BME280;27205;53.690;19.948;2023-02-16T16:34:04;100208.17;;;3.75;83.52
41467;BME280;27205;53.690;19.948;2023-02-16T16:39:22;100203.64;;;3.68;83.63
41467;BME280;27205;53.690;19.948;2023-02-16T16:44:34;100195.61;;;3.65;83.80
41467;BME280;27205;53.690;19.948;2023-02-16T16:49:47;100190.27;;;3.60;83.93
41467;BME280;27205;53.690;19.948;2023-02-16T16:54:52;100188.99;;;3.52;84.15
41467;BME280;27205;53.690;19.948;2023-02-16T16:59:56;100184.63;;;3.48;84.01
41467;BME280;27205;53.690;19.948;2023-02-16T17:04:59;100185.70;;;3.45;84.17
41467;BME280;27205;53.690;19.948;2023-02-16T17:10:03;100195.89;;;3.41;84.16
41467;BME280;27205;53.690;19.948;2023-02-16T17:15:17;100196.13;;;3.31;84.24
41467;BME280;27205;53.690;19.948;2023-02-16T17:20:25;100189.18;;;3.24;84.30
41467;BME280;27205;53.690;19.948;2023-02-16T17:25:30;100188.23;;;3.24;84.27
41467;BME280;27205;53.690;19.948;2023-02-16T17:30:35;100187.66;;;3.26;84.77
41467;BME280;27205;53.690;19.948;2023-02-16T17:35:40;100187.40;;;3.28;84.68
41467;BME280;27205;53.690;19.948;2023-02-16T17:40:50;100188.57;;;3.32;84.69
41467;BME280;27205;53.690;19.948;2023-02-16T17:45:55;100178.65;;;3.39;84.79
41467;BME280;27205;53.690;19.948;2023-02-16T17:51:01;100183.63;;;3.44;84.63
41467;BME280;27205;53.690;19.948;2023-02-16T17:56:05;100186.56;;;3.46;84.77
41467;BME280;27205;53.690;19.948;2023-02-16T18:01:13;100190.95;;;3.51;84.91
41467;BME280;27205;53.690;19.948;2023-02-16T18:06:20;100195.20;;;3.57;85.18
41467;BME280;27205;53.690;19.948;2023-02-16T18:11:24;100195.63;;;3.51;85.21
41467;BME280;27205;53.690;19.948;2023-02-16T18:16:27;100188.83;;;3.48;85.26
41467;BME280;27205;53.690;19.948;2023-02-16T18:21:31;100184.43;;;3.47;85.25
41467;BME280;27205;53.690;19.948;2023-02-16T18:26:34;100186.52;;;3.55;85.50
41467;BME280;27205;53.690;19.948;2023-02-16T18:31:38;100180.67;;;3.61;85.85
41467;BME280;27205;53.690;19.948;2023-02-16T18:36:45;100179.56;;;3.70;86.05
41467;BME280;27205;53.690;19.948;2023-02-16T18:41:48;100183.80;;;3.80;86.37
41467;BME280;27205;53.690;19.948;2023-02-16T18:46:51;100180.96;;;3.90;86.46
41467;BME280;27205;53.690;19.948;2023-02-16T18:51:56;100175.33;;;3.95;86.64
41467;BME280;27205;53.690;19.948;2023-02-16T18:56:59;100169.75;;;4.01;86.59
41467;BME280;27205;53.690;19.948;2023-02-16T19:02:03;100166.71;;;4.01;86.88
41467;BME280;27205;53.690;19.948;2023-02-16T19:07:07;100168.02;;;4.02;87.01
41467;BME280;27205;53.690;19.948;2023-02-16T19:12:11;100159.54;;;4.02;87.05
41467;BME280;27205;53.690;19.948;2023-02-16T19:17:14;100159.30;;;3.98;87.25
41467;BME280;27205;53.690;19.948;2023-02-16T19:22:18;100156.02;;;3.99;87.29
41467;BME280;27205;53.690;19.948;2023-02-16T19:27:21;100155.31;;;3.99;87.49
41467;BME280;27205;53.690;19.948;2023-02-16T19:32:25;100151.20;;;4.02;87.79
41467;BME280;27205;53.690;19.948;2023-02-16T19:37:29;100146.73;;;4.07;87.95
41467;BME280;27205;53.690;19.948;2023-02-16T19:42:32;100143.02;;;4.09;88.06
41467;BME280;27205;53.690;19.948;2023-02-16T19:47:36;100140.55;;;4.12;88.23
41467;BME280;27205;53.690;19.948;2023-02-16T19:52:39;100135.64;;;4.17;88.48
41467;BME280;27205;53.690;19.948;2023-02-16T19:57:42;100142.67;;;4.22;88.56
41467;BME280;27205;53.690;19.948;2023-02-16T20:02:46;100138.72;;;4.29;88.83
41467;BME280;27205;53.690;19.948;2023-02-16T20:07:50;100134.92;;;4.35;88.94
41467;BME280;27205;53.690;19.948;2023-02-16T20:12:53;100136.27;;;4.40;89.04
41467;BME280;27205;53.690;19.948;2023-02-16T20:17:57;100140.05;;;4.45;89.14
41467;BME280;27205;53.690;19.948;2023-02-16T20:23:00;100138.17;;;4.49;89.30
41467;BME280;27205;53.690;19.948;2023-02-16T20:28:04;100130.52;;;4.57;89.44
41467;BME280;27205;53.690;19.948;2023-02-16T20:33:07;100133.27;;;4.66;89.66
41467;BME280;27205;53.690;19.948;2023-02-16T20:38:11;100131.95;;;4.78;89.85
41467;BME280;27205;53.690;19.948;2023-02-16T20:43:14;100130.28;;;4.90;89.92
41467;BME280;27205;53.690;19.948;2023-02-16T20:48:21;100137.00;;;4.98;90.10
41467;BME280;27205;53.690;19.948;2023-02-16T20:53:26;100146.41;;;5.05;90.23
41467;BME280;27205;53.690;19.948;2023-02-16T20:58:32;100137.35;;;5.12;90.39
41467;BME280;27205;53.690;19.948;2023-02-16T21:03:35;100139.80;;;5.17;90.46
41467;BME280;27205;53.690;19.948;2023-02-16T21:08:39;100138.46;;;5.24;90.57
41467;BME280;27205;53.690;19.948;2023-02-16T21:13:43;100128.45;;;5.31;90.61
41467;BME280;27205;53.690;19.948;2023-02-16T21:18:47;100127.95;;;5.38;90.58
41467;BME280;27205;53.690;19.948;2023-02-16T21:23:52;100121.63;;;5.44;90.81
41467;BME280;27205;53.690;19.948;2023-02-16T21:28:56;100120.86;;;5.47;90.78
41467;BME280;27205;53.690;19.948;2023-02-16T21:34:00;100122.27;;;5.48;90.82
41467;BME280;27205;53.690;19.948;2023-02-16T21:39:03;100127.00;;;5.50;90.65
41467;BME280;27205;53.690;19.948;2023-02-16T21:44:14;100129.87;;;5.50;90.70
41467;BME280;27205;53.690;19.948;2023-02-16T21:49:18;100130.51;;;5.56;90.58
41467;BME280;27205;53.690;19.948;2023-02-16T21:54:22;100126.95;;;5.57;90.34
41467;BME280;27205;53.690;19.948;2023-02-16T21:59:45;100122.95;;;5.56;90.41
41467;BME280;27205;53.690;19.948;2023-02-16T22:04:49;100124.19;;;5.56;90.47
41467;BME280;27205;53.690;19.948;2023-02-16T22:09:52;100122.13;;;5.55;90.50
41467;BME280;27205;53.690;19.948;2023-02-16T22:14:56;100121.88;;;5.55;90.54
41467;BME280;27205;53.690;19.948;2023-02-16T22:19:59;100124.83;;;5.55;90.55
41467;BME280;27205;53.690;19.948;2023-02-16T22:25:03;100119.89;;;5.56;90.46
41467;BME280;27205;53.690;19.948;2023-02-16T22:30:08;100114.02;;;5.57;90.63
41467;BME280;27205;53.690;19.948;2023-02-16T22:35:11;100110.39;;;5.61;90.77
41467;BME280;27205;53.690;19.948;2023-02-16T22:40:15;100103.81;;;5.64;90.64
41467;BME280;27205;53.690;19.948;2023-02-16T22:45:19;100094.86;;;5.69;90.45
41467;BME280;27205;53.690;19.948;2023-02-16T22:50:22;100087.41;;;5.68;90.54
41467;BME280;27205;53.690;19.948;2023-02-16T22:55:26;100081.16;;;5.70;90.80
41467;BME280;27205;53.690;19.948;2023-02-16T23:00:29;100082.88;;;5.71;90.78
41467;BME280;27205;53.690;19.948;2023-02-16T23:05:33;100083.98;;;5.70;90.71
41467;BME280;27205;53.690;19.948;2023-02-16T23:10:37;100082.45;;;5.66;90.79
41467;BME280;27205;53.690;19.948;2023-02-16T23:15:41;100079.92;;;5.67;90.91
41467;BME280;27205;53.690;19.948;2023-02-16T23:20:44;100073.27;;;5.65;90.82
41467;BME280;27205;53.690;19.948;2023-02-16T23:25:48;100077.89;;;5.65;91.07
41467;BME280;27205;53.690;19.948;2023-02-16T23:30:55;100082.10;;;5.67;90.94
41467;BME280;27205;53.690;19.948;2023-02-16T23:35:59;100082.36;;;5.66;91.02
41467;BME280;27205;53.690;19.948;2023-02-16T23:41:05;100078.02;;;5.69;90.98
41467;BME280;27205;53.690;19.948;2023-02-16T23:46:10;100082.70;;;5.68;90.99
41467;BME280;27205;53.690;19.948;2023-02-16T23:51:13;100082.58;;;5.67;91.06
41467;BME280;27205;53.690;19.948;2023-02-16T23:56:20;100076.47;;;5.68;91.38
